sensor_id;sensor_type;location;lat;lon;timestamp;P1;durP1;ratioP1;P2;durP2;ratioP2
49764;SDS011;35657;51.204;-4.130;2023-05-21T00:00:49;5.32;;;3.00;;
49764;SDS011;35657;51.204;-4.130;2023-05-21T00:03:15;6.03;;;3.28;;
49764;SDS011;35657;51.204;-4.130;2023-05-21T00:05:42;7.00;;;3.03;;
49764;SDS011;35657;51.204;-4.130;2023-05-21T00:08:11;5.53;;;3.25;;
49764;SDS011;35657;51.204;-4.130;2023-05-21T00:10:38;6.88;;;3.30;;
49764;SDS011;35657;51.204;-4.130;2023-05-21T00:13:03;5.47;;;2.90;;
49764;SDS011;35657;51.204;-4.130;2023-05-21T00:15:29;4.25;;;2.60;;
49764;SDS011;35657;51.204;-4.130;2023-05-21T00:17:56;6.57;;;3.10;;
49764;SDS011;35657;51.204;-4.130;2023-05-21T00:20:22;5.50;;;2.95;;
49764;SDS011;35657;51.204;-4.130;2023-05-21T00:22:47;6.75;;;3.22;;
49764;SDS011;35657;51.204;-4.130;2023-05-21T00:25:13;5.68;;;3.08;;
49764;SDS011;35657;51.204;-4.130;2023-05-21T00:27:39;4.60;;;2.80;;
49764;SDS011;35657;51.204;-4.130;2023-05-21T00:30:05;4.55;;;2.70;;
49764;SDS011;35657;51.204;-4.130;2023-05-21T00:32:31;5.57;;;2.78;;
49764;SDS011;35657;51.204;-4.130;2023-05-21T00:34:57;7.95;;;3.45;;
49764;SDS011;35657;51.204;-4.130;2023-05-21T00:37:22;6.05;;;3.05;;
49764;SDS011;35657;51.204;-4.130;2023-05-21T00:39:48;4.30;;;2.80;;
49764;SDS011;35657;51.204;-4.130;2023-05-21T00:42:15;3.72;;;2.47;;
49764;SDS011;35657;51.204;-4.130;2023-05-21T00:44:45;4.72;;;2.65;;
49764;SDS011;35657;51.204;-4.130;2023-05-21T00:47:11;4.75;;;2.65;;
49764;SDS011;35657;51.204;-4.130;2023-05-21T00:49:37;6.93;;;3.40;;
49764;SDS011;35657;51.204;-4.130;2023-05-21T00:52:04;8.05;;;3.03;;
49764;SDS011;35657;51.204;-4.130;2023-05-21T00:54:31;4.43;;;2.75;;
49764;SDS011;35657;51.204;-4.130;2023-05-21T00:56:57;4.30;;;2.92;;
49764;SDS011;35657;51.204;-4.130;2023-05-21T00:59:24;7.03;;;2.63;;
49764;SDS011;35657;51.204;-4.130;2023-05-21T01:01:51;4.82;;;2.92;;
49764;SDS011;35657;51.204;-4.130;2023-05-21T01:04:21;5.68;;;3.00;;
49764;SDS011;35657;51.204;-4.130;2023-05-21T01:06:47;5.80;;;3.05;;
49764;SDS011;35657;51.204;-4.130;2023-05-21T01:09:13;3.75;;;2.65;;
49764;SDS011;35657;51.204;-4.130;2023-05-21T01:11:39;7.82;;;3.17;;
49764;SDS011;35657;51.204;-4.130;2023-05-21T01:14:09;5.22;;;2.80;;
49764;SDS011;35657;51.204;-4.130;2023-05-21T01:16:36;3.95;;;2.88;;
49764;SDS011;35657;51.204;-4.130;2023-05-21T01:19:05;4.60;;;3.15;;
49764;SDS011;35657;51.204;-4.130;2023-05-21T01:21:35;4.57;;;3.22;;
49764;SDS011;35657;51.204;-4.130;2023-05-21T01:24:05;4.80;;;3.20;;
49764;SDS011;35657;51.204;-4.130;2023-05-21T01:26:31;6.28;;;3.03;;
49764;SDS011;35657;51.204;-4.130;2023-05-21T01:29:02;5.18;;;3.00;;
49764;SDS011;35657;51.204;-4.130;2023-05-21T01:31:33;7.10;;;3.10;;
49764;SDS011;35657;51.204;-4.130;2023-05-21T01:34:04;5.18;;;3.25;;
49764;SDS011;35657;51.204;-4.130;2023-05-21T01:36:36;5.53;;;2.85;;
49764;SDS011;35657;51.204;-4.130;2023-05-21T01:39:13;5.85;;;3.22;;
49764;SDS011;35657;51.204;-4.130;2023-05-21T01:41:42;8.60;;;3.00;;
49764;SDS011;35657;51.204;-4.130;2023-05-21T01:44:10;4.35;;;2.92;;
49764;SDS011;35657;51.204;-4.130;2023-05-21T01:46:37;6.15;;;3.13;;
49764;SDS011;35657;51.204;-4.130;2023-05-21T01:49:04;6.32;;;2.88;;
49764;SDS011;35657;51.204;-4.130;2023-05-21T01:51:31;7.18;;;2.90;;
49764;SDS011;35657;51.204;-4.130;2023-05-21T01:53:57;7.00;;;3.35;;
49764;SDS011;35657;51.204;-4.130;2023-05-21T01:56:23;7.57;;;4.15;;
49764;SDS011;35657;51.204;-4.130;2023-05-21T01:58:50;7.35;;;3.50;;
49764;SDS011;35657;51.204;-4.130;2023-05-21T02:01:16;11.48;;;4.10;;
49764;SDS011;35657;51.204;-4.130;2023-05-21T02:03:42;4.75;;;3.00;;
49764;SDS011;35657;51.204;-4.130;2023-05-21T02:06:07;7.18;;;3.42;;
49764;SDS011;35657;51.204;-4.130;2023-05-21T02:08:33;4.93;;;3.33;;
49764;SDS011;35657;51.204;-4.130;2023-05-21T02:10:59;5.72;;;3.08;;
49764;SDS011;35657;51.204;-4.130;2023-05-21T02:13:24;7.95;;;3.35;;
49764;SDS011;35657;51.204;-4.130;2023-05-21T02:15:50;5.43;;;3.50;;
49764;SDS011;35657;51.204;-4.130;2023-05-21T02:18:18;5.93;;;3.22;;
49764;SDS011;35657;51.204;-4.130;2023-05-21T02:20:45;6.95;;;3.90;;
49764;SDS011;35657;51.204;-4.130;2023-05-21T02:23:11;4.18;;;3.05;;
49764;SDS011;35657;51.204;-4.130;2023-05-21T02:25:37;9.00;;;3.45;;
49764;SDS011;35657;51.204;-4.130;2023-05-21T02:28:03;5.70;;;3.72;;
49764;SDS011;35657;51.204;-4.130;2023-05-21T02:30:29;4.65;;;3.10;;
49764;SDS011;35657;51.204;-4.130;2023-05-21T02:32:54;6.25;;;3.00;;
49764;SDS011;35657;51.204;-4.130;2023-05-21T02:35:22;7.88;;;3.40;;
49764;SDS011;35657;51.204;-4.130;2023-05-21T02:37:48;6.47;;;3.60;;
49764;SDS011;35657;51.204;-4.130;2023-05-21T02:40:14;6.03;;;3.65;;
49764;SDS011;35657;51.204;-4.130;2023-05-21T02:42:40;5.30;;;3.88;;
49764;SDS011;35657;51.204;-4.130;2023-05-21T02:45:09;8.45;;;3.72;;
49764;SDS011;35657;51.204;-4.130;2023-05-21T02:47:36;6.85;;;3.70;;
49764;SDS011;35657;51.204;-4.130;2023-05-21T02:50:04;6.63;;;3.60;;
49764;SDS011;35657;51.204;-4.130;2023-05-21T02:52:30;7.22;;;4.10;;
49764;SDS011;35657;51.204;-4.130;2023-05-21T02:54:56;5.03;;;3.20;;
49764;SDS011;35657;51.204;-4.130;2023-05-21T02:57:21;7.85;;;3.60;;
49764;SDS011;35657;51.204;-4.130;2023-05-21T02:59:47;6.75;;;3.60;;
49764;SDS011;35657;51.204;-4.130;2023-05-21T03:02:13;7.03;;;3.80;;
49764;SDS011;35657;51.204;-4.130;2023-05-21T03:04:38;7.35;;;3.88;;
49764;SDS011;35657;51.204;-4.130;2023-05-21T03:07:10;6.45;;;3.10;;
49764;SDS011;35657;51.204;-4.130;2023-05-21T03:09:38;7.45;;;3.92;;
49764;SDS011;35657;51.204;-4.130;2023-05-21T03:12:05;8.45;;;4.07;;
49764;SDS011;35657;51.204;-4.130;2023-05-21T03:14:31;6.65;;;4.03;;
49764;SDS011;35657;51.204;-4.130;2023-05-21T03:16:57;4.82;;;3.33;;
49764;SDS011;35657;51.204;-4.130;2023-05-21T03:19:23;4.72;;;3.10;;
49764;SDS011;35657;51.204;-4.130;2023-05-21T03:21:49;6.63;;;3.97;;
49764;SDS011;35657;51.204;-4.130;2023-05-21T03:24:15;5.78;;;3.88;;
49764;SDS011;35657;51.204;-4.130;2023-05-21T03:26:40;5.63;;;3.65;;
49764;SDS011;35657;51.204;-4.130;2023-05-21T03:29:06;9.85;;;4.53;;
49764;SDS011;35657;51.204;-4.130;2023-05-21T03:31:32;6.00;;;3.13;;
49764;SDS011;35657;51.204;-4.130;2023-05-21T03:33:57;6.93;;;3.75;;
49764;SDS011;35657;51.204;-4.130;2023-05-21T03:36:23;11.63;;;3.75;;
49764;SDS011;35657;51.204;-4.130;2023-05-21T03:38:49;7.85;;;4.32;;
49764;SDS011;35657;51.204;-4.130;2023-05-21T03:41:14;7.53;;;3.67;;
49764;SDS011;35657;51.204;-4.130;2023-05-21T03:43:40;4.25;;;3.33;;
49764;SDS011;35657;51.204;-4.130;2023-05-21T03:46:06;7.80;;;3.92;;
49764;SDS011;35657;51.204;-4.130;2023-05-21T03:48:31;8.52;;;3.72;;
49764;SDS011;35657;51.204;-4.130;2023-05-21T03:50:57;6.00;;;3.42;;
49764;SDS011;35657;51.204;-4.130;2023-05-21T03:53:23;6.38;;;3.58;;
49764;SDS011;35657;51.204;-4.130;2023-05-21T03:55:49;7.32;;;3.53;;
49764;SDS011;35657;51.204;-4.130;2023-05-21T03:58:22;6.30;;;3.53;;
49764;SDS011;35657;51.204;-4.130;2023-05-21T04:00:48;8.43;;;3.50;;
49764;SDS011;35657;51.204;-4.130;2023-05-21T04:03:13;6.80;;;3.30;;
49764;SDS011;35657;51.204;-4.130;2023-05-21T04:05:42;6.45;;;3.17;;
49764;SDS011;35657;51.204;-4.130;2023-05-21T04:08:09;5.32;;;2.63;;
49764;SDS011;35657;51.204;-4.130;2023-05-21T04:10:35;5.10;;;2.45;;
49764;SDS011;35657;51.204;-4.130;2023-05-21T04:13:00;4.72;;;2.30;;
49764;SDS011;35657;51.204;-4.130;2023-05-21T04:15:26;4.85;;;2.92;;
49764;SDS011;35657;51.204;-4.130;2023-05-21T04:17:52;5.97;;;2.63;;
49764;SDS011;35657;51.204;-4.130;2023-05-21T04:20:18;3.47;;;2.35;;
49764;SDS011;35657;51.204;-4.130;2023-05-21T04:22:44;8.35;;;3.05;;
49764;SDS011;35657;51.204;-4.130;2023-05-21T04:25:10;3.75;;;2.10;;
49764;SDS011;35657;51.204;-4.130;2023-05-21T04:27:36;4.70;;;2.38;;
49764;SDS011;35657;51.204;-4.130;2023-05-21T04:30:02;5.45;;;2.20;;
49764;SDS011;35657;51.204;-4.130;2023-05-21T04:32:28;6.85;;;2.20;;
49764;SDS011;35657;51.204;-4.130;2023-05-21T04:34:59;4.88;;;2.20;;
49764;SDS011;35657;51.204;-4.130;2023-05-21T04:37:25;5.32;;;2.33;;
49764;SDS011;35657;51.204;-4.130;2023-05-21T04:39:55;4.05;;;1.83;;
49764;SDS011;35657;51.204;-4.130;2023-05-21T04:42:21;3.13;;;2.35;;
49764;SDS011;35657;51.204;-4.130;2023-05-21T04:44:48;7.03;;;2.47;;
49764;SDS011;35657;51.204;-4.130;2023-05-21T04:47:14;5.68;;;2.28;;
49764;SDS011;35657;51.204;-4.130;2023-05-21T04:49:43;6.28;;;2.20;;
49764;SDS011;35657;51.204;-4.130;2023-05-21T04:52:10;2.70;;;1.55;;
49764;SDS011;35657;51.204;-4.130;2023-05-21T04:54:37;3.38;;;2.03;;
49764;SDS011;35657;51.204;-4.130;2023-05-21T04:57:03;4.35;;;2.45;;
49764;SDS011;35657;51.204;-4.130;2023-05-21T04:59:29;2.92;;;2.10;;
49764;SDS011;35657;51.204;-4.130;2023-05-21T05:01:55;5.53;;;2.22;;
49764;SDS011;35657;51.204;-4.130;2023-05-21T05:04:21;3.97;;;2.25;;
49764;SDS011;35657;51.204;-4.130;2023-05-21T05:06:47;5.00;;;1.80;;
49764;SDS011;35657;51.204;-4.130;2023-05-21T05:09:13;3.70;;;1.90;;
49764;SDS011;35657;51.204;-4.130;2023-05-21T05:11:38;3.05;;;1.67;;
49764;SDS011;35657;51.204;-4.130;2023-05-21T05:14:04;3.30;;;2.13;;
49764;SDS011;35657;51.204;-4.130;2023-05-21T05:16:30;5.43;;;1.80;;
49764;SDS011;35657;51.204;-4.130;2023-05-21T05:18:56;2.80;;;1.90;;
49764;SDS011;35657;51.204;-4.130;2023-05-21T05:21:22;5.30;;;2.15;;
49764;SDS011;35657;51.204;-4.130;2023-05-21T05:23:48;7.18;;;1.92;;
49764;SDS011;35657;51.204;-4.130;2023-05-21T05:26:14;8.60;;;2.15;;
49764;SDS011;35657;51.204;-4.130;2023-05-21T05:28:39;2.88;;;1.95;;
49764;SDS011;35657;51.204;-4.130;2023-05-21T05:31:05;3.03;;;1.77;;
49764;SDS011;35657;51.204;-4.130;2023-05-21T05:33:31;4.80;;;1.67;;
49764;SDS011;35657;51.204;-4.130;2023-05-21T05:35:57;2.63;;;1.80;;
49764;SDS011;35657;51.204;-4.130;2023-05-21T05:38:22;5.05;;;1.80;;
49764;SDS011;35657;51.204;-4.130;2023-05-21T05:40:48;4.22;;;1.80;;
49764;SDS011;35657;51.204;-4.130;2023-05-21T05:43:14;3.58;;;1.75;;
49764;SDS011;35657;51.204;-4.130;2023-05-21T05:45:40;3.95;;;2.05;;
49764;SDS011;35657;51.204;-4.130;2023-05-21T05:48:05;3.60;;;1.60;;
49764;SDS011;35657;51.204;-4.130;2023-05-21T05:50:31;2.58;;;1.75;;
49764;SDS011;35657;51.204;-4.130;2023-05-21T05:52:56;2.83;;;1.60;;
49764;SDS011;35657;51.204;-4.130;2023-05-21T05:55:22;5.40;;;2.08;;
49764;SDS011;35657;51.204;-4.130;2023-05-21T05:57:49;3.70;;;1.90;;
49764;SDS011;35657;51.204;-4.130;2023-05-21T06:00:15;7.75;;;2.22;;
49764;SDS011;35657;51.204;-4.130;2023-05-21T06:02:41;3.40;;;1.60;;
49764;SDS011;35657;51.204;-4.130;2023-05-21T06:05:07;4.75;;;2.13;;
49764;SDS011;35657;51.204;-4.130;2023-05-21T06:07:33;3.83;;;1.90;;
49764;SDS011;35657;51.204;-4.130;2023-05-21T06:10:01;4.07;;;1.92;;
49764;SDS011;35657;51.204;-4.130;2023-05-21T06:12:26;5.32;;;2.03;;
49764;SDS011;35657;51.204;-4.130;2023-05-21T06:14:52;5.18;;;2.47;;
49764;SDS011;35657;51.204;-4.130;2023-05-21T06:17:17;4.45;;;1.77;;
49764;SDS011;35657;51.204;-4.130;2023-05-21T06:19:43;4.65;;;2.17;;
49764;SDS011;35657;51.204;-4.130;2023-05-21T06:22:10;5.35;;;2.03;;
49764;SDS011;35657;51.204;-4.130;2023-05-21T06:24:35;3.65;;;2.38;;
49764;SDS011;35657;51.204;-4.130;2023-05-21T06:27:01;3.80;;;2.50;;
49764;SDS011;35657;51.204;-4.130;2023-05-21T06:29:28;5.10;;;2.10;;
49764;SDS011;35657;51.204;-4.130;2023-05-21T06:31:54;7.47;;;2.40;;
49764;SDS011;35657;51.204;-4.130;2023-05-21T06:34:19;4.85;;;2.58;;
49764;SDS011;35657;51.204;-4.130;2023-05-21T06:36:45;7.75;;;2.42;;
49764;SDS011;35657;51.204;-4.130;2023-05-21T06:39:11;8.30;;;2.78;;
49764;SDS011;35657;51.204;-4.130;2023-05-21T06:41:37;4.57;;;2.50;;
49764;SDS011;35657;51.204;-4.130;2023-05-21T06:44:03;7.45;;;2.40;;
49764;SDS011;35657;51.204;-4.130;2023-05-21T06:46:29;5.50;;;2.13;;
49764;SDS011;35657;51.204;-4.130;2023-05-21T06:48:55;4.38;;;1.90;;
49764;SDS011;35657;51.204;-4.130;2023-05-21T06:51:21;4.07;;;2.03;;
49764;SDS011;35657;51.204;-4.130;2023-05-21T06:53:47;3.30;;;2.03;;
49764;SDS011;35657;51.204;-4.130;2023-05-21T06:56:12;4.80;;;2.85;;
49764;SDS011;35657;51.204;-4.130;2023-05-21T06:58:38;4.60;;;2.08;;
49764;SDS011;35657;51.204;-4.130;2023-05-21T07:01:04;4.10;;;1.88;;
49764;SDS011;35657;51.204;-4.130;2023-05-21T07:03:29;4.65;;;2.33;;
49764;SDS011;35657;51.204;-4.130;2023-05-21T07:05:58;4.47;;;2.20;;
49764;SDS011;35657;51.204;-4.130;2023-05-21T07:08:24;6.30;;;2.63;;
49764;SDS011;35657;51.204;-4.130;2023-05-21T07:10:49;4.63;;;1.90;;
49764;SDS011;35657;51.204;-4.130;2023-05-21T07:13:15;5.70;;;2.03;;
49764;SDS011;35657;51.204;-4.130;2023-05-21T07:15:41;5.18;;;1.77;;
49764;SDS011;35657;51.204;-4.130;2023-05-21T07:18:06;2.45;;;1.80;;
49764;SDS011;35657;51.204;-4.130;2023-05-21T07:20:32;3.65;;;1.92;;
49764;SDS011;35657;51.204;-4.130;2023-05-21T07:22:58;4.38;;;1.98;;
49764;SDS011;35657;51.204;-4.130;2023-05-21T07:25:23;3.90;;;2.00;;
49764;SDS011;35657;51.204;-4.130;2023-05-21T07:27:49;6.97;;;2.00;;
49764;SDS011;35657;51.204;-4.130;2023-05-21T07:30:15;5.55;;;2.05;;
49764;SDS011;35657;51.204;-4.130;2023-05-21T07:32:41;2.83;;;1.77;;
49764;SDS011;35657;51.204;-4.130;2023-05-21T07:35:06;3.17;;;1.88;;
49764;SDS011;35657;51.204;-4.130;2023-05-21T07:37:32;4.32;;;1.77;;
49764;SDS011;35657;51.204;-4.130;2023-05-21T07:39:58;2.67;;;1.70;;
49764;SDS011;35657;51.204;-4.130;2023-05-21T07:42:24;4.03;;;1.90;;
49764;SDS011;35657;51.204;-4.130;2023-05-21T07:44:50;3.72;;;1.70;;
49764;SDS011;35657;51.204;-4.130;2023-05-21T07:47:16;4.20;;;1.77;;
49764;SDS011;35657;51.204;-4.130;2023-05-21T07:49:42;6.18;;;2.55;;
49764;SDS011;35657;51.204;-4.130;2023-05-21T07:52:08;2.85;;;1.90;;
49764;SDS011;35657;51.204;-4.130;2023-05-21T07:54:34;4.07;;;1.60;;
49764;SDS011;35657;51.204;-4.130;2023-05-21T07:56:59;6.57;;;2.10;;
49764;SDS011;35657;51.204;-4.130;2023-05-21T07:59:28;7.50;;;2.40;;
49764;SDS011;35657;51.204;-4.130;2023-05-21T08:01:53;7.50;;;2.40;;
49764;SDS011;35657;51.204;-4.130;2023-05-21T08:04:19;3.55;;;2.20;;
49764;SDS011;35657;51.204;-4.130;2023-05-21T08:06:45;6.50;;;2.20;;
49764;SDS011;35657;51.204;-4.130;2023-05-21T08:09:12;3.53;;;2.05;;
49764;SDS011;35657;51.204;-4.130;2023-05-21T08:11:38;3.08;;;2.00;;
49764;SDS011;35657;51.204;-4.130;2023-05-21T08:14:04;6.00;;;2.80;;
49764;SDS011;35657;51.204;-4.130;2023-05-21T08:16:30;3.33;;;2.15;;
49764;SDS011;35657;51.204;-4.130;2023-05-21T08:18:56;7.45;;;2.08;;
49764;SDS011;35657;51.204;-4.130;2023-05-21T08:21:22;5.60;;;2.17;;
49764;SDS011;35657;51.204;-4.130;2023-05-21T08:23:47;4.55;;;1.88;;
49764;SDS011;35657;51.204;-4.130;2023-05-21T08:26:13;5.93;;;2.63;;
49764;SDS011;35657;51.204;-4.130;2023-05-21T08:28:40;4.50;;;2.58;;
49764;SDS011;35657;51.204;-4.130;2023-05-21T08:31:06;3.55;;;2.42;;
49764;SDS011;35657;51.204;-4.130;2023-05-21T08:33:33;6.25;;;2.85;;
49764;SDS011;35657;51.204;-4.130;2023-05-21T08:36:01;8.85;;;2.60;;
49764;SDS011;35657;51.204;-4.130;2023-05-21T08:38:28;8.05;;;3.03;;
49764;SDS011;35657;51.204;-4.130;2023-05-21T08:40:54;6.32;;;2.83;;
49764;SDS011;35657;51.204;-4.130;2023-05-21T08:43:20;7.35;;;2.63;;
49764;SDS011;35657;51.204;-4.130;2023-05-21T08:45:52;6.07;;;2.30;;
49764;SDS011;35657;51.204;-4.130;2023-05-21T08:48:23;8.23;;;2.63;;
49764;SDS011;35657;51.204;-4.130;2023-05-21T08:50:49;7.43;;;3.55;;
49764;SDS011;35657;51.204;-4.130;2023-05-21T08:53:16;6.15;;;2.70;;
49764;SDS011;35657;51.204;-4.130;2023-05-21T08:55:42;4.97;;;2.80;;
49764;SDS011;35657;51.204;-4.130;2023-05-21T08:58:08;8.25;;;3.20;;
49764;SDS011;35657;51.204;-4.130;2023-05-21T09:00:35;6.95;;;3.35;;
49764;SDS011;35657;51.204;-4.130;2023-05-21T09:03:01;6.30;;;3.10;;
49764;SDS011;35657;51.204;-4.130;2023-05-21T09:05:31;10.93;;;3.33;;
49764;SDS011;35657;51.204;-4.130;2023-05-21T09:08:05;10.30;;;2.28;;
49764;SDS011;35657;51.204;-4.130;2023-05-21T09:10:38;6.97;;;2.83;;
49764;SDS011;35657;51.204;-4.130;2023-05-21T09:13:06;5.53;;;2.97;;
49764;SDS011;35657;51.204;-4.130;2023-05-21T09:15:33;5.80;;;3.05;;
49764;SDS011;35657;51.204;-4.130;2023-05-21T09:18:00;6.40;;;2.70;;
49764;SDS011;35657;51.204;-4.130;2023-05-21T09:20:26;2.88;;;1.90;;
49764;SDS011;35657;51.204;-4.130;2023-05-21T09:22:52;5.18;;;2.28;;
49764;SDS011;35657;51.204;-4.130;2023-05-21T09:25:23;6.20;;;2.50;;
49764;SDS011;35657;51.204;-4.130;2023-05-21T09:27:56;4.65;;;2.33;;
49764;SDS011;35657;51.204;-4.130;2023-05-21T09:30:22;4.82;;;1.85;;
49764;SDS011;35657;51.204;-4.130;2023-05-21T09:32:53;6.22;;;2.50;;
49764;SDS011;35657;51.204;-4.130;2023-05-21T09:35:21;3.50;;;2.23;;
49764;SDS011;35657;51.204;-4.130;2023-05-21T09:37:47;5.65;;;2.05;;
49764;SDS011;35657;51.204;-4.130;2023-05-21T09:45:25;4.90;;;2.25;;
49764;SDS011;35657;51.204;-4.130;2023-05-21T09:47:53;4.13;;;2.20;;
49764;SDS011;35657;51.204;-4.130;2023-05-21T09:50:20;5.35;;;2.60;;
49764;SDS011;35657;51.204;-4.130;2023-05-21T09:52:48;3.20;;;2.05;;
49764;SDS011;35657;51.204;-4.130;2023-05-21T09:55:17;5.40;;;2.17;;
49764;SDS011;35657;51.204;-4.130;2023-05-21T09:57:46;9.02;;;2.70;;
49764;SDS011;35657;51.204;-4.130;2023-05-21T10:00:26;3.85;;;1.75;;
49764;SDS011;35657;51.204;-4.130;2023-05-21T10:02:53;5.38;;;2.42;;
49764;SDS011;35657;51.204;-4.130;2023-05-21T10:05:19;3.65;;;2.42;;
49764;SDS011;35657;51.204;-4.130;2023-05-21T10:07:50;4.85;;;2.50;;
49764;SDS011;35657;51.204;-4.130;2023-05-21T10:10:20;3.45;;;2.17;;
49764;SDS011;35657;51.204;-4.130;2023-05-21T10:12:47;5.72;;;2.10;;
49764;SDS011;35657;51.204;-4.130;2023-05-21T10:15:41;3.70;;;2.33;;
49764;SDS011;35657;51.204;-4.130;2023-05-21T10:18:09;10.15;;;2.58;;
49764;SDS011;35657;51.204;-4.130;2023-05-21T10:20:36;4.13;;;2.38;;
49764;SDS011;35657;51.204;-4.130;2023-05-21T10:23:02;6.68;;;2.13;;
49764;SDS011;35657;51.204;-4.130;2023-05-21T10:25:29;5.40;;;2.17;;
49764;SDS011;35657;51.204;-4.130;2023-05-21T10:27:56;4.53;;;3.25;;
49764;SDS011;35657;51.204;-4.130;2023-05-21T10:30:22;4.97;;;2.83;;
49764;SDS011;35657;51.204;-4.130;2023-05-21T10:32:49;4.32;;;2.80;;
49764;SDS011;35657;51.204;-4.130;2023-05-21T10:35:15;6.07;;;3.13;;
49764;SDS011;35657;51.204;-4.130;2023-05-21T10:37:44;5.30;;;2.20;;
49764;SDS011;35657;51.204;-4.130;2023-05-21T10:40:10;4.90;;;2.63;;
49764;SDS011;35657;51.204;-4.130;2023-05-21T10:45:15;8.10;;;2.40;;
49764;SDS011;35657;51.204;-4.130;2023-05-21T11:01:28;4.60;;;2.13;;
49764;SDS011;35657;51.204;-4.130;2023-05-21T11:03:58;7.75;;;2.17;;
49764;SDS011;35657;51.204;-4.130;2023-05-21T11:06:24;4.63;;;2.05;;
49764;SDS011;35657;51.204;-4.130;2023-05-21T11:08:50;3.80;;;2.42;;
49764;SDS011;35657;51.204;-4.130;2023-05-21T11:11:38;2.88;;;2.13;;
49764;SDS011;35657;51.204;-4.130;2023-05-21T11:17:02;3.13;;;1.85;;
49764;SDS011;35657;51.204;-4.130;2023-05-21T11:19:32;4.13;;;1.83;;
49764;SDS011;35657;51.204;-4.130;2023-05-21T11:21:59;6.15;;;2.13;;
49764;SDS011;35657;51.204;-4.130;2023-05-21T11:24:24;3.15;;;2.20;;
49764;SDS011;35657;51.204;-4.130;2023-05-21T11:29:43;3.90;;;2.05;;
49764;SDS011;35657;51.204;-4.130;2023-05-21T11:32:09;5.13;;;1.90;;
49764;SDS011;35657;51.204;-4.130;2023-05-21T11:39:42;6.20;;;2.13;;
49764;SDS011;35657;51.204;-4.130;2023-05-21T11:42:08;5.53;;;2.65;;
49764;SDS011;35657;51.204;-4.130;2023-05-21T11:47:13;4.90;;;2.20;;
49764;SDS011;35657;51.204;-4.130;2023-05-21T11:49:43;4.10;;;2.67;;
49764;SDS011;35657;51.204;-4.130;2023-05-21T11:52:10;3.53;;;2.05;;
49764;SDS011;35657;51.204;-4.130;2023-05-21T11:54:50;4.43;;;2.10;;
49764;SDS011;35657;51.204;-4.130;2023-05-21T11:57:20;3.10;;;2.05;;
49764;SDS011;35657;51.204;-4.130;2023-05-21T11:59:47;7.18;;;2.75;;
49764;SDS011;35657;51.204;-4.130;2023-05-21T12:02:15;8.63;;;2.65;;
49764;SDS011;35657;51.204;-4.130;2023-05-21T12:04:43;4.18;;;2.80;;
49764;SDS011;35657;51.204;-4.130;2023-05-21T12:07:10;7.05;;;2.55;;
49764;SDS011;35657;51.204;-4.130;2023-05-21T12:12:06;7.45;;;2.90;;
49764;SDS011;35657;51.204;-4.130;2023-05-21T12:14:33;7.57;;;3.03;;
49764;SDS011;35657;51.204;-4.130;2023-05-21T12:17:02;5.30;;;2.47;;
49764;SDS011;35657;51.204;-4.130;2023-05-21T12:19:32;3.90;;;2.53;;
49764;SDS011;35657;51.204;-4.130;2023-05-21T12:22:01;4.57;;;2.13;;
49764;SDS011;35657;51.204;-4.130;2023-05-21T12:24:28;5.78;;;2.72;;
49764;SDS011;35657;51.204;-4.130;2023-05-21T12:26:55;3.42;;;2.28;;
49764;SDS011;35657;51.204;-4.130;2023-05-21T12:29:29;3.95;;;2.35;;
49764;SDS011;35657;51.204;-4.130;2023-05-21T12:31:58;5.38;;;2.40;;
49764;SDS011;35657;51.204;-4.130;2023-05-21T12:40:00;4.32;;;1.83;;
49764;SDS011;35657;51.204;-4.130;2023-05-21T12:42:29;6.78;;;1.98;;
49764;SDS011;35657;51.204;-4.130;2023-05-21T12:45:00;3.47;;;1.70;;
49764;SDS011;35657;51.204;-4.130;2023-05-21T12:47:29;2.67;;;1.77;;
49764;SDS011;35657;51.204;-4.130;2023-05-21T12:49:56;4.63;;;2.13;;
49764;SDS011;35657;51.204;-4.130;2023-05-21T12:52:23;5.57;;;2.10;;
49764;SDS011;35657;51.204;-4.130;2023-05-21T12:54:49;4.25;;;1.95;;
49764;SDS011;35657;51.204;-4.130;2023-05-21T12:59:47;9.13;;;5.55;;
49764;SDS011;35657;51.204;-4.130;2023-05-21T13:02:26;5.47;;;2.75;;
49764;SDS011;35657;51.204;-4.130;2023-05-21T13:04:59;8.15;;;3.28;;
49764;SDS011;35657;51.204;-4.130;2023-05-21T13:07:27;3.85;;;1.73;;
49764;SDS011;35657;51.204;-4.130;2023-05-21T13:09:57;3.03;;;1.40;;
49764;SDS011;35657;51.204;-4.130;2023-05-21T13:12:24;4.22;;;2.88;;
49764;SDS011;35657;51.204;-4.130;2023-05-21T13:14:51;3.90;;;2.17;;
49764;SDS011;35657;51.204;-4.130;2023-05-21T13:17:19;4.45;;;2.25;;
49764;SDS011;35657;51.204;-4.130;2023-05-21T13:20:03;2.67;;;1.70;;
49764;SDS011;35657;51.204;-4.130;2023-05-21T13:22:42;3.30;;;1.40;;
49764;SDS011;35657;51.204;-4.130;2023-05-21T13:25:12;5.32;;;1.90;;
49764;SDS011;35657;51.204;-4.130;2023-05-21T13:27:41;5.60;;;3.42;;
49764;SDS011;35657;51.204;-4.130;2023-05-21T13:30:07;11.00;;;5.22;;
49764;SDS011;35657;51.204;-4.130;2023-05-21T13:32:35;7.97;;;2.63;;
49764;SDS011;35657;51.204;-4.130;2023-05-21T13:35:01;4.07;;;1.70;;
49764;SDS011;35657;51.204;-4.130;2023-05-21T13:37:27;8.48;;;3.45;;
49764;SDS011;35657;51.204;-4.130;2023-05-21T13:39:53;12.40;;;5.30;;
49764;SDS011;35657;51.204;-4.130;2023-05-21T13:42:19;14.45;;;6.32;;
49764;SDS011;35657;51.204;-4.130;2023-05-21T13:44:45;4.75;;;2.42;;
49764;SDS011;35657;51.204;-4.130;2023-05-21T13:47:12;9.40;;;5.32;;
49764;SDS011;35657;51.204;-4.130;2023-05-21T13:49:38;7.70;;;5.00;;
49764;SDS011;35657;51.204;-4.130;2023-05-21T13:52:04;7.68;;;1.85;;
49764;SDS011;35657;51.204;-4.130;2023-05-21T13:54:31;3.10;;;1.90;;
49764;SDS011;35657;51.204;-4.130;2023-05-21T13:56:57;2.92;;;1.70;;
49764;SDS011;35657;51.204;-4.130;2023-05-21T13:59:23;3.65;;;1.98;;
49764;SDS011;35657;51.204;-4.130;2023-05-21T14:01:49;2.63;;;2.15;;
49764;SDS011;35657;51.204;-4.130;2023-05-21T14:04:16;3.28;;;1.98;;
49764;SDS011;35657;51.204;-4.130;2023-05-21T14:06:43;2.92;;;1.60;;
49764;SDS011;35657;51.204;-4.130;2023-05-21T14:09:09;6.13;;;1.85;;
49764;SDS011;35657;51.204;-4.130;2023-05-21T14:11:35;5.18;;;1.85;;
49764;SDS011;35657;51.204;-4.130;2023-05-21T14:14:02;2.78;;;1.63;;
49764;SDS011;35657;51.204;-4.130;2023-05-21T14:16:28;3.15;;;1.58;;
49764;SDS011;35657;51.204;-4.130;2023-05-21T14:18:54;3.83;;;1.95;;
49764;SDS011;35657;51.204;-4.130;2023-05-21T14:21:21;4.22;;;1.77;;
49764;SDS011;35657;51.204;-4.130;2023-05-21T14:23:47;6.60;;;1.92;;
49764;SDS011;35657;51.204;-4.130;2023-05-21T14:26:13;3.97;;;1.92;;
49764;SDS011;35657;51.204;-4.130;2023-05-21T14:28:39;5.82;;;2.10;;
49764;SDS011;35657;51.204;-4.130;2023-05-21T14:31:06;5.28;;;2.13;;
49764;SDS011;35657;51.204;-4.130;2023-05-21T14:33:31;6.63;;;2.58;;
49764;SDS011;35657;51.204;-4.130;2023-05-21T14:35:58;4.28;;;2.03;;
49764;SDS011;35657;51.204;-4.130;2023-05-21T14:38:24;10.25;;;2.58;;
49764;SDS011;35657;51.204;-4.130;2023-05-21T14:40:50;2.75;;;1.55;;
49764;SDS011;35657;51.204;-4.130;2023-05-21T14:43:16;7.78;;;2.20;;
49764;SDS011;35657;51.204;-4.130;2023-05-21T14:45:41;3.88;;;1.65;;
49764;SDS011;35657;51.204;-4.130;2023-05-21T14:48:07;3.25;;;1.55;;
49764;SDS011;35657;51.204;-4.130;2023-05-21T14:50:33;4.82;;;2.03;;
49764;SDS011;35657;51.204;-4.130;2023-05-21T14:53:06;2.95;;;1.67;;
49764;SDS011;35657;51.204;-4.130;2023-05-21T14:55:33;4.03;;;1.63;;
49764;SDS011;35657;51.204;-4.130;2023-05-21T14:58:00;4.53;;;1.70;;
49764;SDS011;35657;51.204;-4.130;2023-05-21T15:00:27;4.22;;;2.40;;
49764;SDS011;35657;51.204;-4.130;2023-05-21T15:02:53;3.17;;;2.13;;
49764;SDS011;35657;51.204;-4.130;2023-05-21T15:05:19;3.83;;;2.00;;
49764;SDS011;35657;51.204;-4.130;2023-05-21T15:07:44;3.78;;;1.48;;
49764;SDS011;35657;51.204;-4.130;2023-05-21T15:10:10;6.70;;;1.77;;
49764;SDS011;35657;51.204;-4.130;2023-05-21T15:12:37;4.65;;;2.45;;
49764;SDS011;35657;51.204;-4.130;2023-05-21T15:15:04;3.25;;;1.83;;
49764;SDS011;35657;51.204;-4.130;2023-05-21T15:17:33;2.78;;;2.00;;